sensor_id;sensor_type;location;lat;lon;timestamp;temperature;humidity
10316;DHT22;5203;48.976;8.306;2022-07-10T00:01:14;22.30;71.10
10316;DHT22;5203;48.976;8.306;2022-07-10T00:03:40;22.30;69.80
10316;DHT22;5203;48.976;8.306;2022-07-10T00:06:05;22.40;69.40
10316;DHT22;5203;48.976;8.306;2022-07-10T00:08:32;22.50;69.20
10316;DHT22;5203;48.976;8.306;2022-07-10T00:10:58;22.50;69.00
10316;DHT22;5203;48.976;8.306;2022-07-10T00:13:24;22.60;68.60
10316;DHT22;5203;48.976;8.306;2022-07-10T00:15:49;22.60;68.40
10316;DHT22;5203;48.976;8.306;2022-07-10T00:18:15;22.50;70.20
10316;DHT22;5203;48.976;8.306;2022-07-10T00:20:41;22.20;70.50
10316;DHT22;5203;48.976;8.306;2022-07-10T00:23:06;22.20;71.70
10316;DHT22;5203;48.976;8.306;2022-07-10T00:25:32;22.00;73.40
10316;DHT22;5203;48.976;8.306;2022-07-10T00:27:58;22.00;71.60
10316;DHT22;5203;48.976;8.306;2022-07-10T00:30:25;22.00;71.60
10316;DHT22;5203;48.976;8.306;2022-07-10T00:32:50;22.10;71.20
10316;DHT22;5203;48.976;8.306;2022-07-10T00:35:16;22.20;70.40
10316;DHT22;5203;48.976;8.306;2022-07-10T00:37:42;22.20;70.20
10316;DHT22;5203;48.976;8.306;2022-07-10T00:40:08;22.20;70.70
10316;DHT22;5203;48.976;8.306;2022-07-10T00:42:34;22.20;70.50
10316;DHT22;5203;48.976;8.306;2022-07-10T00:45:00;22.10;71.20
10316;DHT22;5203;48.976;8.306;2022-07-10T00:47:26;22.10;71.60
10316;DHT22;5203;48.976;8.306;2022-07-10T00:49:51;22.10;70.90
10316;DHT22;5203;48.976;8.306;2022-07-10T00:52:18;22.10;70.60
10316;DHT22;5203;48.976;8.306;2022-07-10T00:54:46;22.10;71.60
10316;DHT22;5203;48.976;8.306;2022-07-10T00:57:13;21.80;71.90
10316;DHT22;5203;48.976;8.306;2022-07-10T00:59:40;21.50;70.30
10316;DHT22;5203;48.976;8.306;2022-07-10T01:02:06;21.50;72.50
10316;DHT22;5203;48.976;8.306;2022-07-10T01:04:32;21.40;74.00
10316;DHT22;5203;48.976;8.306;2022-07-10T01:07:01;21.30;74.20
10316;DHT22;5203;48.976;8.306;2022-07-10T01:09:27;21.20;72.50
10316;DHT22;5203;48.976;8.306;2022-07-10T01:11:57;21.10;74.10
10316;DHT22;5203;48.976;8.306;2022-07-10T01:14:25;21.10;72.50
10316;DHT22;5203;48.976;8.306;2022-07-10T01:16:52;21.10;70.80
10316;DHT22;5203;48.976;8.306;2022-07-10T01:19:19;20.90;69.70
10316;DHT22;5203;48.976;8.306;2022-07-10T01:21:45;20.70;69.70
10316;DHT22;5203;48.976;8.306;2022-07-10T01:24:10;20.70;70.00
10316;DHT22;5203;48.976;8.306;2022-07-10T01:26:37;20.70;69.60
10316;DHT22;5203;48.976;8.306;2022-07-10T01:29:05;20.80;69.10
10316;DHT22;5203;48.976;8.306;2022-07-10T01:31:34;21.00;68.60
10316;DHT22;5203;48.976;8.306;2022-07-10T01:34:01;20.90;67.50
10316;DHT22;5203;48.976;8.306;2022-07-10T01:36:31;20.90;68.00
10316;DHT22;5203;48.976;8.306;2022-07-10T01:38:58;20.80;67.00
10316;DHT22;5203;48.976;8.306;2022-07-10T01:41:24;20.60;67.10
10316;DHT22;5203;48.976;8.306;2022-07-10T01:43:51;20.30;69.00
10316;DHT22;5203;48.976;8.306;2022-07-10T01:46:18;20.10;69.40
10316;DHT22;5203;48.976;8.306;2022-07-10T01:48:43;20.10;70.00
10316;DHT22;5203;48.976;8.306;2022-07-10T01:51:10;20.10;68.70
10316;DHT22;5203;48.976;8.306;2022-07-10T01:53:37;20.00;68.60
10316;DHT22;5203;48.976;8.306;2022-07-10T01:56:06;19.90;68.70
10316;DHT22;5203;48.976;8.306;2022-07-10T01:58:32;19.90;69.40
10316;DHT22;5203;48.976;8.306;2022-07-10T02:00:58;19.80;69.70
10316;DHT22;5203;48.976;8.306;2022-07-10T02:03:24;19.80;69.60
10316;DHT22;5203;48.976;8.306;2022-07-10T02:06:09;19.70;69.50
10316;DHT22;5203;48.976;8.306;2022-07-10T02:08:34;19.50;70.30
10316;DHT22;5203;48.976;8.306;2022-07-10T02:11:00;19.30;71.30
10316;DHT22;5203;48.976;8.306;2022-07-10T02:13:26;19.10;71.30
10316;DHT22;5203;48.976;8.306;2022-07-10T02:15:54;19.10;71.80
10316;DHT22;5203;48.976;8.306;2022-07-10T02:18:20;19.10;71.80
10316;DHT22;5203;48.976;8.306;2022-07-10T02:20:46;18.90;72.50
10316;DHT22;5203;48.976;8.306;2022-07-10T02:23:12;18.90;72.60
10316;DHT22;5203;48.976;8.306;2022-07-10T02:25:38;18.90;72.70
10316;DHT22;5203;48.976;8.306;2022-07-10T02:28:04;18.90;72.10
10316;DHT22;5203;48.976;8.306;2022-07-10T02:30:30;18.90;72.10
10316;DHT22;5203;48.976;8.306;2022-07-10T02:32:59;18.80;72.60
10316;DHT22;5203;48.976;8.306;2022-07-10T02:35:24;18.80;73.00
10316;DHT22;5203;48.976;8.306;2022-07-10T02:37:50;18.80;72.50
10316;DHT22;5203;48.976;8.306;2022-07-10T02:40:16;18.70;72.50
10316;DHT22;5203;48.976;8.306;2022-07-10T02:42:42;18.70;72.70
10316;DHT22;5203;48.976;8.306;2022-07-10T02:45:08;18.60;73.10
10316;DHT22;5203;48.976;8.306;2022-07-10T02:47:34;18.70;72.90
10316;DHT22;5203;48.976;8.306;2022-07-10T02:50:00;18.70;72.40
10316;DHT22;5203;48.976;8.306;2022-07-10T02:52:26;18.60;72.90
10316;DHT22;5203;48.976;8.306;2022-07-10T02:54:52;18.70;72.50
10316;DHT22;5203;48.976;8.306;2022-07-10T02:57:18;18.70;72.90
10316;DHT22;5203;48.976;8.306;2022-07-10T02:59:44;18.70;72.90
10316;DHT22;5203;48.976;8.306;2022-07-10T03:02:10;18.50;73.40
10316;DHT22;5203;48.976;8.306;2022-07-10T03:04:35;18.40;73.90
10316;DHT22;5203;48.976;8.306;2022-07-10T03:07:01;18.40;74.30
10316;DHT22;5203;48.976;8.306;2022-07-10T03:09:27;18.50;73.70
10316;DHT22;5203;48.976;8.306;2022-07-10T03:11:53;18.50;74.10
10316;DHT22;5203;48.976;8.306;2022-07-10T03:14:19;18.40;74.30
10316;DHT22;5203;48.976;8.306;2022-07-10T03:16:44;18.60;73.80
10316;DHT22;5203;48.976;8.306;2022-07-10T03:19:10;18.50;73.70
10316;DHT22;5203;48.976;8.306;2022-07-10T03:21:36;18.50;73.70
10316;DHT22;5203;48.976;8.306;2022-07-10T03:24:05;18.50;73.90
10316;DHT22;5203;48.976;8.306;2022-07-10T03:26:31;18.40;73.20
10316;DHT22;5203;48.976;8.306;2022-07-10T03:28:57;18.30;73.50
10316;DHT22;5203;48.976;8.306;2022-07-10T03:31:23;18.20;74.00
10316;DHT22;5203;48.976;8.306;2022-07-10T03:33:49;18.20;74.70
10316;DHT22;5203;48.976;8.306;2022-07-10T03:36:15;18.00;74.40
10316;DHT22;5203;48.976;8.306;2022-07-10T03:38:41;18.00;74.80
10316;DHT22;5203;48.976;8.306;2022-07-10T03:41:07;18.00;74.80
10316;DHT22;5203;48.976;8.306;2022-07-10T03:43:32;18.10;73.80
10316;DHT22;5203;48.976;8.306;2022-07-10T03:45:58;18.10;74.00
10316;DHT22;5203;48.976;8.306;2022-07-10T03:48:24;18.20;73.60
10316;DHT22;5203;48.976;8.306;2022-07-10T03:50:51;18.10;73.20
10316;DHT22;5203;48.976;8.306;2022-07-10T03:53:17;18.00;73.20
10316;DHT22;5203;48.976;8.306;2022-07-10T03:55:43;18.10;73.80
10316;DHT22;5203;48.976;8.306;2022-07-10T03:58:09;18.30;72.50
10316;DHT22;5203;48.976;8.306;2022-07-10T04:00:35;18.30;72.40
10316;DHT22;5203;48.976;8.306;2022-07-10T04:03:05;18.00;72.60
10316;DHT22;5203;48.976;8.306;2022-07-10T04:05:32;17.90;73.20
10316;DHT22;5203;48.976;8.306;2022-07-10T04:07:58;17.90;73.20
10316;DHT22;5203;48.976;8.306;2022-07-10T04:10:26;18.00;73.40
10316;DHT22;5203;48.976;8.306;2022-07-10T04:12:52;18.00;72.30
10316;DHT22;5203;48.976;8.306;2022-07-10T04:15:18;18.10;72.60
10316;DHT22;5203;48.976;8.306;2022-07-10T04:17:44;18.10;72.20
10316;DHT22;5203;48.976;8.306;2022-07-10T04:20:10;18.00;72.50
10316;DHT22;5203;48.976;8.306;2022-07-10T04:22:36;17.80;73.40
10316;DHT22;5203;48.976;8.306;2022-07-10T04:25:03;17.90;73.40
10316;DHT22;5203;48.976;8.306;2022-07-10T04:27:29;18.00;72.70
10316;DHT22;5203;48.976;8.306;2022-07-10T04:29:55;18.10;72.40
10316;DHT22;5203;48.976;8.306;2022-07-10T04:32:21;18.00;72.10
10316;DHT22;5203;48.976;8.306;2022-07-10T04:34:46;17.90;72.90
10316;DHT22;5203;48.976;8.306;2022-07-10T04:37:12;18.00;72.60
10316;DHT22;5203;48.976;8.306;2022-07-10T04:39:38;17.90;72.80
10316;DHT22;5203;48.976;8.306;2022-07-10T04:42:06;17.90;72.30
10316;DHT22;5203;48.976;8.306;2022-07-10T04:44:33;17.90;72.70
10316;DHT22;5203;48.976;8.306;2022-07-10T04:46:59;17.80;72.80
10316;DHT22;5203;48.976;8.306;2022-07-10T04:49:25;17.80;73.00
10316;DHT22;5203;48.976;8.306;2022-07-10T04:51:52;17.90;73.00
10316;DHT22;5203;48.976;8.306;2022-07-10T04:54:17;18.00;71.90
10316;DHT22;5203;48.976;8.306;2022-07-10T04:56:43;17.90;72.30
10316;DHT22;5203;48.976;8.306;2022-07-10T04:59:10;17.90;72.60
10316;DHT22;5203;48.976;8.306;2022-07-10T05:01:36;17.90;72.10
10316;DHT22;5203;48.976;8.306;2022-07-10T05:04:05;17.70;73.30
10316;DHT22;5203;48.976;8.306;2022-07-10T05:06:31;17.80;72.50
10316;DHT22;5203;48.976;8.306;2022-07-10T05:08:57;17.80;72.70
10316;DHT22;5203;48.976;8.306;2022-07-10T05:11:23;17.80;73.10
10316;DHT22;5203;48.976;8.306;2022-07-10T05:13:49;17.90;72.10
10316;DHT22;5203;48.976;8.306;2022-07-10T05:16:15;17.80;72.60
10316;DHT22;5203;48.976;8.306;2022-07-10T05:18:41;17.80;72.50
10316;DHT22;5203;48.976;8.306;2022-07-10T05:21:08;17.90;72.40
10316;DHT22;5203;48.976;8.306;2022-07-10T05:23:34;18.00;72.70
10316;DHT22;5203;48.976;8.306;2022-07-10T05:26:00;18.00;71.60
10316;DHT22;5203;48.976;8.306;2022-07-10T05:28:26;18.00;71.90
10316;DHT22;5203;48.976;8.306;2022-07-10T05:30:52;18.10;71.20
10316;DHT22;5203;48.976;8.306;2022-07-10T05:33:18;18.00;70.60
10316;DHT22;5203;48.976;8.306;2022-07-10T05:35:44;17.90;70.90
10316;DHT22;5203;48.976;8.306;2022-07-10T05:38:10;17.80;70.70
10316;DHT22;5203;48.976;8.306;2022-07-10T05:40:37;17.90;71.00
10316;DHT22;5203;48.976;8.306;2022-07-10T05:43:03;17.90;71.00
10316;DHT22;5203;48.976;8.306;2022-07-10T05:45:29;17.90;71.10
10316;DHT22;5203;48.976;8.306;2022-07-10T05:47:55;17.90;70.30
10316;DHT22;5203;48.976;8.306;2022-07-10T05:50:21;17.70;71.40
10316;DHT22;5203;48.976;8.306;2022-07-10T05:52:47;17.80;71.70
10316;DHT22;5203;48.976;8.306;2022-07-10T05:55:13;17.80;70.80
10316;DHT22;5203;48.976;8.306;2022-07-10T05:57:39;17.80;70.50
10316;DHT22;5203;48.976;8.306;2022-07-10T06:00:06;17.90;70.50
10316;DHT22;5203;48.976;8.306;2022-07-10T06:02:32;17.90;69.80
10316;DHT22;5203;48.976;8.306;2022-07-10T06:04:58;17.80;70.40
10316;DHT22;5203;48.976;8.306;2022-07-10T06:07:25;17.80;70.60
10316;DHT22;5203;48.976;8.306;2022-07-10T06:09:51;17.80;70.30
10316;DHT22;5203;48.976;8.306;2022-07-10T06:12:17;18.10;69.90
10316;DHT22;5203;48.976;8.306;2022-07-10T06:14:43;18.20;68.10
10316;DHT22;5203;48.976;8.306;2022-07-10T06:17:09;18.20;67.10
10316;DHT22;5203;48.976;8.306;2022-07-10T06:19:35;18.20;67.60
10316;DHT22;5203;48.976;8.306;2022-07-10T06:22:00;18.20;67.80
10316;DHT22;5203;48.976;8.306;2022-07-10T06:24:45;18.20;68.30
10316;DHT22;5203;48.976;8.306;2022-07-10T06:27:11;18.20;67.50
10316;DHT22;5203;48.976;8.306;2022-07-10T06:29:37;18.30;67.90
10316;DHT22;5203;48.976;8.306;2022-07-10T06:32:03;18.40;67.80
10316;DHT22;5203;48.976;8.306;2022-07-10T06:34:29;18.40;67.30
10316;DHT22;5203;48.976;8.306;2022-07-10T06:36:55;18.60;66.80
10316;DHT22;5203;48.976;8.306;2022-07-10T06:39:21;18.50;66.90
10316;DHT22;5203;48.976;8.306;2022-07-10T06:41:47;18.60;65.90
10316;DHT22;5203;48.976;8.306;2022-07-10T06:44:12;18.50;66.00
10316;DHT22;5203;48.976;8.306;2022-07-10T06:46:38;18.40;66.30
10316;DHT22;5203;48.976;8.306;2022-07-10T06:49:05;18.50;66.40
10316;DHT22;5203;48.976;8.306;2022-07-10T06:51:31;18.60;66.20
10316;DHT22;5203;48.976;8.306;2022-07-10T06:53:57;18.60;65.90
10316;DHT22;5203;48.976;8.306;2022-07-10T06:56:23;18.60;66.10
10316;DHT22;5203;48.976;8.306;2022-07-10T06:58:49;18.50;65.10
10316;DHT22;5203;48.976;8.306;2022-07-10T07:01:15;18.50;66.30
10316;DHT22;5203;48.976;8.306;2022-07-10T07:03:40;18.60;66.00
10316;DHT22;5203;48.976;8.306;2022-07-10T07:06:06;18.70;65.90
10316;DHT22;5203;48.976;8.306;2022-07-10T07:08:32;18.80;64.00
10316;DHT22;5203;48.976;8.306;2022-07-10T07:10:58;18.80;63.50
10316;DHT22;5203;48.976;8.306;2022-07-10T07:13:23;19.20;62.70
10316;DHT22;5203;48.976;8.306;2022-07-10T07:15:49;19.20;59.30
10316;DHT22;5203;48.976;8.306;2022-07-10T07:18:25;19.30;59.50
10316;DHT22;5203;48.976;8.306;2022-07-10T07:21:02;19.50;57.40
10316;DHT22;5203;48.976;8.306;2022-07-10T07:23:54;19.60;57.60
10316;DHT22;5203;48.976;8.306;2022-07-10T07:26:20;19.50;54.10
10316;DHT22;5203;48.976;8.306;2022-07-10T07:28:46;19.20;57.00
10316;DHT22;5203;48.976;8.306;2022-07-10T07:31:12;19.10;57.00
10316;DHT22;5203;48.976;8.306;2022-07-10T07:33:37;19.00;57.60
10316;DHT22;5203;48.976;8.306;2022-07-10T07:36:03;19.10;57.90
10316;DHT22;5203;48.976;8.306;2022-07-10T07:38:29;19.10;58.10
10316;DHT22;5203;48.976;8.306;2022-07-10T07:40:55;18.90;57.50
10316;DHT22;5203;48.976;8.306;2022-07-10T07:43:20;19.00;57.70
10316;DHT22;5203;48.976;8.306;2022-07-10T07:45:46;19.10;57.20
10316;DHT22;5203;48.976;8.306;2022-07-10T07:48:12;19.10;57.60
10316;DHT22;5203;48.976;8.306;2022-07-10T07:50:38;19.20;55.70
10316;DHT22;5203;48.976;8.306;2022-07-10T07:53:05;19.30;56.10
10316;DHT22;5203;48.976;8.306;2022-07-10T07:55:33;19.60;55.60
10316;DHT22;5203;48.976;8.306;2022-07-10T07:57:59;20.00;55.20
10316;DHT22;5203;48.976;8.306;2022-07-10T08:00:27;20.10;54.70
10316;DHT22;5203;48.976;8.306;2022-07-10T08:02:54;20.20;54.20
10316;DHT22;5203;48.976;8.306;2022-07-10T08:05:20;20.30;53.10
10316;DHT22;5203;48.976;8.306;2022-07-10T08:07:52;20.40;52.70
10316;DHT22;5203;48.976;8.306;2022-07-10T08:10:20;20.30;53.40
10316;DHT22;5203;48.976;8.306;2022-07-10T08:12:46;20.20;53.50
10316;DHT22;5203;48.976;8.306;2022-07-10T08:15:17;20.20;55.00
10316;DHT22;5203;48.976;8.306;2022-07-10T08:17:46;20.30;52.60
10316;DHT22;5203;48.976;8.306;2022-07-10T08:20:13;20.20;52.60
10316;DHT22;5203;48.976;8.306;2022-07-10T08:22:39;20.20;53.40
10316;DHT22;5203;48.976;8.306;2022-07-10T08:25:06;20.30;53.60
10316;DHT22;5203;48.976;8.306;2022-07-10T08:27:31;20.60;53.70
10316;DHT22;5203;48.976;8.306;2022-07-10T08:29:57;20.70;52.10
10316;DHT22;5203;48.976;8.306;2022-07-10T08:32:23;20.60;52.70
10316;DHT22;5203;48.976;8.306;2022-07-10T08:34:49;20.60;51.70
10316;DHT22;5203;48.976;8.306;2022-07-10T08:37:15;20.40;51.60
10316;DHT22;5203;48.976;8.306;2022-07-10T08:39:41;20.40;51.70
10316;DHT22;5203;48.976;8.306;2022-07-10T08:42:08;20.30;51.60
10316;DHT22;5203;48.976;8.306;2022-07-10T08:44:35;20.40;50.20
10316;DHT22;5203;48.976;8.306;2022-07-10T08:47:02;20.40;49.70
10316;DHT22;5203;48.976;8.306;2022-07-10T08:49:29;20.30;50.40
10316;DHT22;5203;48.976;8.306;2022-07-10T08:54:29;20.60;48.70
10316;DHT22;5203;48.976;8.306;2022-07-10T08:56:56;20.80;49.20
10316;DHT22;5203;48.976;8.306;2022-07-10T08:59:23;21.00;48.40
10316;DHT22;5203;48.976;8.306;2022-07-10T09:01:49;21.20;48.10
10316;DHT22;5203;48.976;8.306;2022-07-10T09:23:31;21.40;43.70
10316;DHT22;5203;48.976;8.306;2022-07-10T09:26:04;20.80;45.30
10316;DHT22;5203;48.976;8.306;2022-07-10T09:28:30;20.70;46.80
10316;DHT22;5203;48.976;8.306;2022-07-10T09:30:59;20.60;47.00
10316;DHT22;5203;48.976;8.306;2022-07-10T09:33:26;20.60;45.40
10316;DHT22;5203;48.976;8.306;2022-07-10T09:41:15;21.70;42.70
10316;DHT22;5203;48.976;8.306;2022-07-10T09:43:51;21.70;42.40
10316;DHT22;5203;48.976;8.306;2022-07-10T09:46:19;21.60;40.40
10316;DHT22;5203;48.976;8.306;2022-07-10T09:48:45;21.40;41.60
10316;DHT22;5203;48.976;8.306;2022-07-10T09:51:11;21.60;41.50
10316;DHT22;5203;48.976;8.306;2022-07-10T09:53:42;21.50;40.90
10316;DHT22;5203;48.976;8.306;2022-07-10T09:56:09;21.70;40.00
10316;DHT22;5203;48.976;8.306;2022-07-10T09:58:36;22.00;39.40
10316;DHT22;5203;48.976;8.306;2022-07-10T10:01:03;22.00;39.00
10316;DHT22;5203;48.976;8.306;2022-07-10T10:03:36;22.20;38.70
10316;DHT22;5203;48.976;8.306;2022-07-10T10:06:15;22.30;39.50
10316;DHT22;5203;48.976;8.306;2022-07-10T10:11:44;22.40;38.40
10316;DHT22;5203;48.976;8.306;2022-07-10T10:14:11;22.40;38.70
10316;DHT22;5203;48.976;8.306;2022-07-10T10:16:39;22.30;38.30
10316;DHT22;5203;48.976;8.306;2022-07-10T10:19:07;22.40;37.40
10316;DHT22;5203;48.976;8.306;2022-07-10T10:21:54;22.80;37.90
10316;DHT22;5203;48.976;8.306;2022-07-10T10:24:20;22.30;37.80
10316;DHT22;5203;48.976;8.306;2022-07-10T10:26:46;22.50;38.40
10316;DHT22;5203;48.976;8.306;2022-07-10T10:29:12;22.50;37.80
10316;DHT22;5203;48.976;8.306;2022-07-10T10:31:39;22.90;36.60
10316;DHT22;5203;48.976;8.306;2022-07-10T10:34:05;23.20;35.80
10316;DHT22;5203;48.976;8.306;2022-07-10T10:39:20;23.20;35.80
10316;DHT22;5203;48.976;8.306;2022-07-10T10:41:51;23.00;35.50
10316;DHT22;5203;48.976;8.306;2022-07-10T10:47:03;23.50;35.20
10316;DHT22;5203;48.976;8.306;2022-07-10T10:49:54;24.20;34.50
10316;DHT22;5203;48.976;8.306;2022-07-10T10:52:23;24.20;34.30
10316;DHT22;5203;48.976;8.306;2022-07-10T10:59:59;24.20;33.60
10316;DHT22;5203;48.976;8.306;2022-07-10T11:02:33;24.00;33.70
10316;DHT22;5203;48.976;8.306;2022-07-10T11:07:58;24.20;33.80
10316;DHT22;5203;48.976;8.306;2022-07-10T11:15:42;24.50;32.70
10316;DHT22;5203;48.976;8.306;2022-07-10T11:18:19;24.90;32.80
10316;DHT22;5203;48.976;8.306;2022-07-10T11:20:48;24.80;31.90
10316;DHT22;5203;48.976;8.306;2022-07-10T11:23:47;24.80;31.70
10316;DHT22;5203;48.976;8.306;2022-07-10T11:26:24;24.70;33.60
10316;DHT22;5203;48.976;8.306;2022-07-10T11:28:55;25.10;32.60
10316;DHT22;5203;48.976;8.306;2022-07-10T11:31:23;24.90;32.40
10316;DHT22;5203;48.976;8.306;2022-07-10T11:33:53;25.20;31.10
10316;DHT22;5203;48.976;8.306;2022-07-10T11:36:24;25.20;31.90
10316;DHT22;5203;48.976;8.306;2022-07-10T11:39:04;25.80;30.90
10316;DHT22;5203;48.976;8.306;2022-07-10T11:41:30;25.80;30.20
10316;DHT22;5203;48.976;8.306;2022-07-10T11:43:58;25.70;29.80
10316;DHT22;5203;48.976;8.306;2022-07-10T11:46:26;25.70;30.00
10316;DHT22;5203;48.976;8.306;2022-07-10T11:48:52;25.50;30.70
10316;DHT22;5203;48.976;8.306;2022-07-10T11:51:35;25.90;29.80
10316;DHT22;5203;48.976;8.306;2022-07-10T11:56:39;26.20;29.80
10316;DHT22;5203;48.976;8.306;2022-07-10T11:59:09;26.40;30.10
10316;DHT22;5203;48.976;8.306;2022-07-10T12:01:48;26.00;30.80
10316;DHT22;5203;48.976;8.306;2022-07-10T12:04:19;25.80;31.00
10316;DHT22;5203;48.976;8.306;2022-07-10T12:06:48;25.90;30.00
10316;DHT22;5203;48.976;8.306;2022-07-10T12:09:16;26.70;30.00
10316;DHT22;5203;48.976;8.306;2022-07-10T12:11:44;26.70;30.20
10316;DHT22;5203;48.976;8.306;2022-07-10T12:16:36;27.30;28.80
10316;DHT22;5203;48.976;8.306;2022-07-10T12:19:03;26.80;29.90
10316;DHT22;5203;48.976;8.306;2022-07-10T12:21:29;26.80;29.10
10316;DHT22;5203;48.976;8.306;2022-07-10T12:23:55;26.60;28.90
10316;DHT22;5203;48.976;8.306;2022-07-10T12:26:22;26.90;29.00
10316;DHT22;5203;48.976;8.306;2022-07-10T12:28:52;27.20;29.40
10316;DHT22;5203;48.976;8.306;2022-07-10T12:31:32;27.10;28.60
10316;DHT22;5203;48.976;8.306;2022-07-10T12:34:03;26.90;28.90
10316;DHT22;5203;48.976;8.306;2022-07-10T12:37:07;26.80;29.10
10316;DHT22;5203;48.976;8.306;2022-07-10T12:39:36;27.50;28.10
10316;DHT22;5203;48.976;8.306;2022-07-10T12:42:04;27.40;28.50
10316;DHT22;5203;48.976;8.306;2022-07-10T12:44:40;27.80;28.50
10316;DHT22;5203;48.976;8.306;2022-07-10T12:47:12;27.80;28.00
10316;DHT22;5203;48.976;8.306;2022-07-10T12:49:54;27.40;28.60
10316;DHT22;5203;48.976;8.306;2022-07-10T12:52:28;27.80;27.90
10316;DHT22;5203;48.976;8.306;2022-07-10T13:02:47;28.50;28.10
10316;DHT22;5203;48.976;8.306;2022-07-10T13:05:45;28.50;28.10
10316;DHT22;5203;48.976;8.306;2022-07-10T13:10:44;27.80;28.40
10316;DHT22;5203;48.976;8.306;2022-07-10T13:13:10;28.60;27.60
10316;DHT22;5203;48.976;8.306;2022-07-10T13:15:36;28.40;27.70
10316;DHT22;5203;48.976;8.306;2022-07-10T13:18:33;28.60;27.80
10316;DHT22;5203;48.976;8.306;2022-07-10T13:20:58;27.90;28.30
10316;DHT22;5203;48.976;8.306;2022-07-10T13:23:24;27.80;28.10
10316;DHT22;5203;48.976;8.306;2022-07-10T13:25:52;28.50;27.60
10316;DHT22;5203;48.976;8.306;2022-07-10T13:28:18;28.30;27.90
10316;DHT22;5203;48.976;8.306;2022-07-10T13:30:44;27.80;28.70
10316;DHT22;5203;48.976;8.306;2022-07-10T13:33:10;27.50;28.70
10316;DHT22;5203;48.976;8.306;2022-07-10T13:35:36;27.90;28.60
10316;DHT22;5203;48.976;8.306;2022-07-10T13:38:02;28.00;28.80
10316;DHT22;5203;48.976;8.306;2022-07-10T13:40:29;28.50;28.20
10316;DHT22;5203;48.976;8.306;2022-07-10T13:42:56;28.90;26.80
10316;DHT22;5203;48.976;8.306;2022-07-10T13:45:23;28.90;27.20
10316;DHT22;5203;48.976;8.306;2022-07-10T13:47:50;28.10;28.70
10316;DHT22;5203;48.976;8.306;2022-07-10T13:50:19;28.60;27.90
10316;DHT22;5203;48.976;8.306;2022-07-10T13:52:45;28.90;28.00
10316;DHT22;5203;48.976;8.306;2022-07-10T13:55:11;29.90;27.30
10316;DHT22;5203;48.976;8.306;2022-07-10T13:57:37;29.90;26.70
10316;DHT22;5203;48.976;8.306;2022-07-10T14:00:04;29.30;27.40
10316;DHT22;5203;48.976;8.306;2022-07-10T14:02:29;29.90;26.70
10316;DHT22;5203;48.976;8.306;2022-07-10T14:04:55;30.20;26.80
10316;DHT22;5203;48.976;8.306;2022-07-10T14:07:21;29.50;27.40
10316;DHT22;5203;48.976;8.306;2022-07-10T14:09:49;29.60;27.00
10316;DHT22;5203;48.976;8.306;2022-07-10T14:12:15;30.20;26.60
10316;DHT22;5203;48.976;8.306;2022-07-10T14:14:41;30.60;26.30
10316;DHT22;5203;48.976;8.306;2022-07-10T14:17:07;30.30;26.50
10316;DHT22;5203;48.976;8.306;2022-07-10T14:19:33;30.10;27.00
10316;DHT22;5203;48.976;8.306;2022-07-10T14:21:58;29.80;27.30
10316;DHT22;5203;48.976;8.306;2022-07-10T14:24:25;30.00;27.50
10316;DHT22;5203;48.976;8.306;2022-07-10T14:26:50;30.40;27.40
10316;DHT22;5203;48.976;8.306;2022-07-10T14:29:18;30.40;27.10
10316;DHT22;5203;48.976;8.306;2022-07-10T14:31:44;30.20;27.30
10316;DHT22;5203;48.976;8.306;2022-07-10T14:34:15;29.10;28.80
10316;DHT22;5203;48.976;8.306;2022-07-10T14:36:44;29.10;28.50
10316;DHT22;5203;48.976;8.306;2022-07-10T14:39:11;28.40;29.40
10316;DHT22;5203;48.976;8.306;2022-07-10T14:41:39;27.80;30.00
10316;DHT22;5203;48.976;8.306;2022-07-10T14:44:05;27.80;29.90
10316;DHT22;5203;48.976;8.306;2022-07-10T14:46:34;28.30;29.40
10316;DHT22;5203;48.976;8.306;2022-07-10T14:49:00;28.20;29.20
10316;DHT22;5203;48.976;8.306;2022-07-10T14:51:26;28.00;30.10
10316;DHT22;5203;48.976;8.306;2022-07-10T14:53:52;28.20;29.80
10316;DHT22;5203;48.976;8.306;2022-07-10T14:56:19;27.70;30.00
10316;DHT22;5203;48.976;8.306;2022-07-10T14:58:45;26.80;32.50
10316;DHT22;5203;48.976;8.306;2022-07-10T15:01:12;26.60;32.90
10316;DHT22;5203;48.976;8.306;2022-07-10T15:03:37;26.70;32.30
10316;DHT22;5203;48.976;8.306;2022-07-10T15:06:03;27.00;32.10
10316;DHT22;5203;48.976;8.306;2022-07-10T15:08:29;27.00;31.70
10316;DHT22;5203;48.976;8.306;2022-07-10T15:10:55;26.80;31.00
10316;DHT22;5203;48.976;8.306;2022-07-10T15:13:21;26.90;31.90
10316;DHT22;5203;48.976;8.306;2022-07-10T15:15:47;26.80;31.10
10316;DHT22;5203;48.976;8.306;2022-07-10T15:18:15;27.10;32.10
10316;DHT22;5203;48.976;8.306;2022-07-10T15:20:41;27.40;31.50
10316;DHT22;5203;48.976;8.306;2022-07-10T15:23:06;27.70;31.20
10316;DHT22;5203;48.976;8.306;2022-07-10T15:25:32;27.40;31.60
10316;DHT22;5203;48.976;8.306;2022-07-10T15:27:58;26.70;31.50
10316;DHT22;5203;48.976;8.306;2022-07-10T15:30:24;26.90;31.90
10316;DHT22;5203;48.976;8.306;2022-07-10T15:32:50;26.90;32.00
10316;DHT22;5203;48.976;8.306;2022-07-10T15:35:19;27.10;31.90
10316;DHT22;5203;48.976;8.306;2022-07-10T15:37:44;27.30;32.20
10316;DHT22;5203;48.976;8.306;2022-07-10T15:40:10;26.80;32.50
10316;DHT22;5203;48.976;8.306;2022-07-10T15:42:36;26.40;33.40
10316;DHT22;5203;48.976;8.306;2022-07-10T15:45:02;26.10;34.20
10316;DHT22;5203;48.976;8.306;2022-07-10T15:47:28;26.30;34.70
10316;DHT22;5203;48.976;8.306;2022-07-10T15:49:53;26.20;34.20
10316;DHT22;5203;48.976;8.306;2022-07-10T15:52:19;25.90;34.80
10316;DHT22;5203;48.976;8.306;2022-07-10T15:54:45;25.70;35.30
10316;DHT22;5203;48.976;8.306;2022-07-10T15:57:10;25.80;33.70
10316;DHT22;5203;48.976;8.306;2022-07-10T15:59:39;25.60;34.60
10316;DHT22;5203;48.976;8.306;2022-07-10T16:02:06;25.80;34.40
10316;DHT22;5203;48.976;8.306;2022-07-10T16:04:32;25.90;34.30
10316;DHT22;5203;48.976;8.306;2022-07-10T16:06:58;25.80;34.20
10316;DHT22;5203;48.976;8.306;2022-07-10T16:09:24;25.50;34.90
10316;DHT22;5203;48.976;8.306;2022-07-10T16:11:49;25.80;34.00
10316;DHT22;5203;48.976;8.306;2022-07-10T16:14:15;26.00;34.20
10316;DHT22;5203;48.976;8.306;2022-07-10T16:16:41;26.20;34.00
10316;DHT22;5203;48.976;8.306;2022-07-10T16:19:07;26.40;33.90
10316;DHT22;5203;48.976;8.306;2022-07-10T16:21:36;26.20;34.60
10316;DHT22;5203;48.976;8.306;2022-07-10T16:24:02;25.90;34.60
10316;DHT22;5203;48.976;8.306;2022-07-10T16:26:28;25.90;35.20
10316;DHT22;5203;48.976;8.306;2022-07-10T16:28:54;25.70;35.90
10316;DHT22;5203;48.976;8.306;2022-07-10T16:31:20;25.80;35.20
10316;DHT22;5203;48.976;8.306;2022-07-10T16:33:46;25.80;34.50
10316;DHT22;5203;48.976;8.306;2022-07-10T16:36:12;26.10;35.30
10316;DHT22;5203;48.976;8.306;2022-07-10T16:38:38;26.10;35.00
10316;DHT22;5203;48.976;8.306;2022-07-10T16:41:04;25.90;34.70
10316;DHT22;5203;48.976;8.306;2022-07-10T16:43:30;26.10;34.70
10316;DHT22;5203;48.976;8.306;2022-07-10T16:45:59;26.10;34.80
10316;DHT22;5203;48.976;8.306;2022-07-10T16:48:25;25.90;34.80
10316;DHT22;5203;48.976;8.306;2022-07-10T16:50:51;25.70;35.50